Terminal Aerodrome Forecast
Issued by NWS Tampa Bay Area, FL

Home | Current Version | Previous Version | Text Only | Print | Product List | Glossary On
Versions: 1 2 3 4 5 6 7 8 9 10 11 12 13 14
000
FTUS42 KTBW 261740
TAFFMY
TAF
KFMY 261740Z 2618/2718 25013G23KT P6SM SCT030 SCT100 SCT250
     FM262300 26010KT P6SM SCT030 SCT250
     FM271000 25005KT P6SM SCT010 SCT250
     FM271500 29007KT P6SM SCT020 BKN250=

USA.gov is the U.S. government's official web portal to all federal, state and local government web resources and services.